Time;durP1;ratioP1;P1;durP2;ratioP2;P2;SDS_P1;SDS_P2;PMS_P1;PMS_P2;Temp;Humidity;BMP_temperature;BMP_pressure;BME280_temperature;BME280_humidity;BME280_pressure;Samples;Min_cycle;Max_cycle;Signal;HPM_P1;HPM_P2
2022/06/02 00:04:18;;;;;;;5.90;4.20;;;;;;;14.38;66.26;99813.91;213229;1276;150872;-63
2022/06/02 00:09:44;;;;;;;27.80;4.60;;;;;;;14.31;66.71;99835.91;212873;1277;162718;-65
2022/06/02 00:15:06;;;;;;;6.10;4.20;;;;;;;14.22;66.66;99829.07;214060;1276;142591;-65
2022/06/02 00:20:14;;;;;;;5.00;4.50;;;;;;;14.18;67.09;99842.77;213422;1277;141288;-63
2022/06/02 00:25:41;;;;;;;4.50;4.20;;;;;;;14.14;67.38;99827.41;213595;1276;140902;-62
2022/06/02 00:30:57;;;;;;;6.70;5.20;;;;;;;14.17;68.02;99768.71;213334;1276;141614;-64
2022/06/02 00:36:21;;;;;;;5.40;4.90;;;;;;;14.15;68.34;99801.98;213614;1276;141171;-64
2022/06/02 00:41:32;;;;;;;7.70;4.90;;;;;;;14.06;68.35;99794.37;213526;1277;140680;-63
2022/06/02 00:46:36;;;;;;;5.50;5.00;;;;;;;14.02;68.73;99771.03;213803;1276;140591;-64
2022/06/02 00:51:52;;;;;;;6.40;5.40;;;;;;;13.98;68.99;99754.48;213954;1276;141305;-65
2022/06/02 01:02:58;;;;;;;5.70;5.30;;;;;;;13.86;69.68;99745.00;214149;1276;140292;-64
2022/06/02 01:08:45;;;;;;;5.70;5.10;;;;;;;13.83;69.55;99738.54;213794;1277;140159;-64
2022/06/02 01:14:11;;;;;;;6.50;4.90;;;;;;;13.77;69.73;99735.44;214322;1276;140868;-64
2022/06/02 01:19:22;;;;;;;6.30;5.70;;;;;;;13.65;69.82;99732.73;215718;1276;140586;-63
2022/06/02 01:24:48;;;;;;;6.50;5.90;;;;;;;13.50;70.01;99733.10;215698;1276;141043;-63
2022/06/02 01:30:13;;;;;;;5.90;5.40;;;;;;;13.44;70.64;99759.42;214835;1275;151964;-65
2022/06/02 01:35:57;;;;;;;6.00;5.40;;;;;;;13.42;70.67;99835.29;214455;1276;140674;-63
2022/06/02 01:41:32;;;;;;;5.70;5.20;;;;;;;13.41;71.12;99845.51;213111;1277;140312;-63
2022/06/02 01:46:42;;;;;;;6.30;5.70;;;;;;;13.42;71.63;99828.64;213473;1277;140181;-65
2022/06/02 01:52:13;;;;;;;9.30;5.70;;;;;;;13.46;71.94;99829.90;214092;1277;140156;-64
2022/06/02 01:57:35;;;;;;;5.50;5.10;;;;;;;13.53;72.09;99858.31;214284;1277;141106;-64
2022/06/02 02:03:17;;;;;;;3.50;3.20;;;;;;;13.54;72.00;99903.16;213824;1277;140167;-63
2022/06/02 02:08:38;;;;;;;5.90;4.60;;;;;;;13.22;71.55;99871.97;213073;1277;139778;-62
2022/06/02 02:14:03;;;;;;;5.50;4.80;;;;;;;12.93;72.63;99875.95;213385;1277;139416;-58
2022/06/02 02:19:58;;;;;;;4.50;4.20;;;;;;;12.75;72.80;99865.44;213884;1276;140842;-63
2022/06/02 02:25:27;;;;;;;6.50;5.00;;;;;;;12.59;73.46;99842.93;212286;1284;141884;-64
2022/06/02 02:30:56;;;;;;;6.90;4.40;;;;;;;12.57;73.56;99847.13;213425;1276;140884;-63
2022/06/02 02:36:19;;;;;;;3.20;2.80;;;;;;;12.57;73.68;99854.02;214163;1276;141375;-63
2022/06/02 02:41:48;;;;;;;3.80;3.50;;;;;;;12.43;73.88;99850.58;214334;1276;142994;-64
2022/06/02 02:47:19;;;;;;;3.90;3.50;;;;;;;12.43;74.26;99862.34;214061;1277;224688;-63
2022/06/02 02:53:02;;;;;;;3.40;3.20;;;;;;;12.38;74.31;99858.73;214439;1276;141035;-63
2022/06/02 02:58:16;;;;;;;4.20;3.40;;;;;;;12.32;74.46;99854.39;213491;1276;140043;-62
2022/06/02 03:03:28;;;;;;;4.70;4.30;;;;;;;12.34;75.02;99853.52;215816;1276;141107;-64
2022/06/02 03:08:39;;;;;;;4.20;3.90;;;;;;;12.35;74.93;99840.23;216014;1277;139823;-64
2022/06/02 03:14:10;;;;;;;5.80;4.50;;;;;;;12.37;75.48;99839.98;215873;1276;140339;-64
2022/06/02 03:19:31;;;;;;;4.70;4.20;;;;;;;12.39;75.29;99835.16;215816;1276;140248;-64
2022/06/02 03:24:53;;;;;;;5.10;4.70;;;;;;;12.45;75.55;99827.02;215962;1277;141076;-64
2022/06/02 03:30:06;;;;;;;4.60;4.30;;;;;;;12.58;75.85;99827.61;214490;1275;140083;-63
2022/06/02 03:35:22;;;;;;;5.00;4.70;;;;;;;12.52;75.54;99834.23;214555;1276;139887;-63
2022/06/02 03:40:38;;;;;;;6.50;5.80;;;;;;;12.45;75.79;99833.80;213565;1277;140086;-63
2022/06/02 03:46:29;;;;;;;12.40;6.50;;;;;;;12.44;76.08;99840.85;214168;1276;139760;-63
2022/06/02 03:51:49;;;;;;;5.50;5.00;;;;;;;12.42;75.83;99831.78;214536;1276;140960;-64
2022/06/02 03:56:57;;;;;;;5.50;5.00;;;;;;;12.35;76.26;99817.71;214074;1277;140983;-63
2022/06/02 04:02:07;;;;;;;5.50;5.10;;;;;;;12.47;76.53;99827.33;213674;1277;140643;-63
2022/06/02 04:07:28;;;;;;;5.00;4.60;;;;;;;12.64;76.07;99832.10;213249;1277;140597;-63
2022/06/02 04:18:25;;;;;;;5.00;4.70;;;;;;;12.91;76.44;99854.41;214094;1277;140350;-64
2022/06/02 04:23:39;;;;;;;6.20;5.60;;;;;;;13.25;76.60;99864.84;214752;1276;141722;-63
2022/06/02 04:28:50;;;;;;;6.20;5.50;;;;;;;13.63;76.75;99879.01;214039;1277;209519;-62
2022/06/02 04:34:13;;;;;;;4.80;4.40;;;;;;;13.82;76.55;99895.17;214281;1276;140158;-63
2022/06/02 04:39:45;;;;;;;5.20;4.80;;;;;;;13.94;76.16;99900.55;215834;1276;141317;-63
2022/06/02 04:45:02;;;;;;;4.50;4.20;;;;;;;13.97;76.02;99889.45;213676;1277;141461;-63
2022/06/02 04:50:33;;;;;;;5.90;5.40;;;;;;;14.13;75.98;99908.46;215211;1276;140576;-63
2022/06/02 04:55:53;;;;;;;5.20;4.80;;;;;;;14.16;75.84;99937.49;214864;1277;686745;-64
2022/06/02 05:01:30;;;;;;;4.50;4.20;;;;;;;14.15;75.44;99945.70;215692;1277;140301;-64
2022/06/02 05:06:50;;;;;;;4.80;4.30;;;;;;;14.10;75.34;99938.88;214958;1277;140769;-63
2022/06/02 05:12:29;;;;;;;5.00;4.60;;;;;;;14.41;75.34;99947.40;215426;1277;140012;-63
2022/06/02 05:17:53;;;;;;;8.30;4.40;;;;;;;14.48;74.88;99957.08;214346;1277;142387;-63
2022/06/02 05:22:58;;;;;;;5.80;5.30;;;;;;;14.58;74.97;99971.89;214756;1277;143464;-64
2022/06/02 05:28:08;;;;;;;5.00;4.60;;;;;;;14.59;74.89;99985.08;213536;1278;141945;-62
2022/06/02 05:33:27;;;;;;;5.70;5.30;;;;;;;14.48;74.58;99986.95;214449;1276;140273;-63
2022/06/02 05:38:36;;;;;;;4.00;3.70;;;;;;;14.38;74.88;99980.71;214925;1276;139851;-64
2022/06/02 05:43:59;;;;;;;5.80;4.70;;;;;;;14.41;74.84;99983.70;213412;1277;141563;-63
2022/06/02 05:49:36;;;;;;;5.00;4.60;;;;;;;14.54;75.29;99996.04;213614;1277;142867;-63
2022/06/02 05:55:02;;;;;;;12.20;6.40;;;;;;;14.62;74.95;100011.94;213510;1276;142343;-63
2022/06/02 06:00:40;;;;;;;5.10;4.80;;;;;;;14.61;75.00;100017.09;213514;1277;142672;-63
2022/06/02 06:05:46;;;;;;;5.30;4.60;;;;;;;14.57;74.76;100035.94;212961;1276;162205;-64
2022/06/02 06:11:22;;;;;;;4.70;4.30;;;;;;;14.45;74.87;100051.80;213381;1277;141176;-63
2022/06/02 06:17:03;;;;;;;5.50;4.80;;;;;;;14.44;75.15;100059.45;214570;1276;141679;-64
2022/06/02 06:22:46;;;;;;;5.20;4.80;;;;;;;14.57;75.16;100065.98;213864;1276;142568;-63
2022/06/02 06:28:18;;;;;;;5.70;4.20;;;;;;;14.56;74.58;100071.48;214698;1276;142464;-61
2022/06/02 06:34:02;;;;;;;4.80;4.50;;;;;;;14.53;74.75;100085.57;214730;1277;141911;-62
2022/06/02 06:39:21;;;;;;;5.10;4.60;;;;;;;14.43;74.43;100100.58;213252;1277;142272;-63
2022/06/02 06:44:47;;;;;;;7.20;4.50;;;;;;;14.43;74.23;100105.95;214424;1276;142086;-62
2022/06/02 06:49:58;;;;;;;5.00;4.60;;;;;;;14.26;73.80;100115.42;213463;1277;141130;-62
2022/06/02 06:55:31;;;;;;;5.00;4.60;;;;;;;14.08;73.55;100128.91;215795;1276;140383;-63
2022/06/02 07:00:41;;;;;;;3.20;3.00;;;;;;;13.87;73.31;100141.98;215745;1274;140995;-63
2022/06/02 07:05:56;;;;;;;6.90;3.60;;;;;;;13.63;73.35;100148.59;215277;1276;222249;-62
2022/06/02 07:17:25;;;;;;;2.90;2.70;;;;;;;13.56;72.99;100118.41;215554;1276;141688;-64
2022/06/02 07:23:15;;;;;;;2.60;2.40;;;;;;;13.65;73.40;100112.23;213953;1276;141611;-62
2022/06/02 07:28:57;;;;;;;2.10;2.00;;;;;;;13.92;73.71;100106.30;213975;1277;143849;-65
2022/06/02 07:34:34;;;;;;;5.50;2.50;;;;;;;14.11;73.14;100083.01;212958;1277;153882;-65
2022/06/02 07:40:35;;;;;;;2.50;2.30;;;;;;;14.16;72.72;100052.02;212953;1277;141701;-64
2022/06/02 07:46:20;;;;;;;3.20;3.00;;;;;;;14.22;72.66;100067.92;212517;1284;144254;-64
2022/06/02 07:51:58;;;;;;;3.70;2.40;;;;;;;14.34;72.90;100068.82;212832;1277;140333;-63
2022/06/02 07:57:21;;;;;;;2.90;2.30;;;;;;;14.54;73.04;100072.59;214554;1277;140319;-63
2022/06/02 08:02:50;;;;;;;2.20;2.10;;;;;;;15.03;73.31;100081.17;213522;1277;141100;-62
2022/06/02 08:07:56;;;;;;;1.60;1.50;;;;;;;15.38;72.64;100094.66;213372;1277;140423;-64
2022/06/02 08:13:20;;;;;;;1.80;1.70;;;;;;;16.18;73.87;100089.91;214683;1275;140679;-64
2022/06/02 08:18:45;;;;;;;1.90;1.80;;;;;;;17.29;73.42;100089.47;214595;1276;142576;-63
2022/06/02 08:23:59;;;;;;;1.90;1.50;;;;;;;18.22;72.43;100090.42;214734;1276;140724;-65
2022/06/02 08:29:16;;;;;;;3.00;1.30;;;;;;;18.89;71.00;100098.62;215050;1276;140289;-63
2022/06/02 08:34:21;;;;;;;;;;;;;;;19.41;69.79;100101.15;214390;1275;140346;-62
2022/06/02 08:39:56;;;;;;;1.10;1.10;;;;;;;19.78;68.69;100106.00;215284;1275;128256;-66
2022/06/02 08:45:10;;;;;;;1.20;1.00;;;;;;;20.11;66.78;100113.98;214794;1274;140538;-63
2022/06/02 08:50:42;;;;;;;1.40;1.00;;;;;;;20.34;65.76;100113.33;214843;1276;141455;-65
2022/06/02 08:56:05;;;;;;;0.80;0.80;;;;;;;20.55;64.38;100123.57;215893;1274;141313;-66
2022/06/02 09:01:21;;;;;;;1.20;1.00;;;;;;;20.69;63.17;100127.95;215321;1276;141637;-62
2022/06/02 09:06:44;;;;;;;1.30;1.20;;;;;;;20.80;62.14;100127.95;215749;1276;141019;-61
2022/06/02 09:12:32;;;;;;;1.80;1.30;;;;;;;20.90;61.80;100131.20;215384;1277;141675;-61
2022/06/02 09:18:15;;;;;;;1.20;1.10;;;;;;;21.03;61.01;100136.83;215196;1276;154727;-62
2022/06/02 09:23:44;;;;;;;2.10;1.90;;;;;;;21.48;60.70;100137.27;214669;1277;139927;-64
2022/06/02 09:29:15;;;;;;;2.40;1.80;;;;;;;21.74;59.42;100137.96;213117;1277;140263;-62
2022/06/02 09:34:22;;;;;;;2.10;1.40;;;;;;;21.55;57.83;100145.07;215712;1276;139904;-63
2022/06/02 09:39:36;;;;;;;1.80;1.70;;;;;;;21.28;57.26;100151.20;215433;1276;140110;-63
2022/06/02 09:45:10;;;;;;;2.10;2.00;;;;;;;21.40;57.38;100152.55;215037;1276;141627;-63
2022/06/02 09:50:20;;;;;;;2.80;2.60;;;;;;;21.23;56.50;100151.82;213147;1276;139592;-62
2022/06/02 09:55:24;;;;;;;3.00;2.50;;;;;;;21.45;56.61;100148.89;213370;1276;139898;-62
2022/06/02 10:00:51;;;;;;;2.30;2.20;;;;;;;21.58;56.20;100154.79;214117;1275;140308;-64
2022/06/02 10:06:51;;;;;;;2.70;2.60;;;;;;;21.06;54.89;100162.69;213376;1277;141289;-62
2022/06/02 10:12:54;;;;;;;3.50;2.80;;;;;;;20.70;55.40;100164.77;213113;1276;161746;-62
2022/06/02 10:17:41;;;;;;;3.00;2.60;;;;;;;20.98;55.66;100166.10;212744;1275;141693;-65
2022/06/02 10:23:32;;;;;;;2.50;2.40;;;;;;;21.34;55.16;100166.36;214346;1277;140429;-64
2022/06/02 10:28:51;;;;;;;5.50;2.30;;;;;;;21.21;53.75;100171.27;214438;1276;140551;-68
2022/06/02 10:33:58;;;;;;;2.30;2.10;;;;;;;20.99;53.74;100168.75;214176;1275;140278;-63
2022/06/02 10:39:20;;;;;;;2.50;2.20;;;;;;;21.50;53.83;100166.31;214278;1276;141155;-64
2022/06/02 10:44:29;;;;;;;1.50;1.40;;;;;;;21.89;52.96;100174.60;214345;1275;141037;-64
2022/06/02 10:49:53;;;;;;;3.10;2.50;;;;;;;21.36;52.06;100172.92;213647;1276;140129;-65
2022/06/02 10:55:34;;;;;;;2.60;2.30;;;;;;;21.03;52.28;100174.94;214505;1276;140140;-65
2022/06/02 11:00:56;;;;;;;2.90;2.20;;;;;;;21.13;52.69;100175.38;215393;1275;142267;-65
2022/06/02 11:06:33;;;;;;;4.20;2.60;;;;;;;21.71;52.94;100174.09;213771;1276;139475;-64
2022/06/02 11:12:13;;;;;;;4.30;2.70;;;;;;;21.89;51.39;100174.00;215552;1275;139468;-64
2022/06/02 11:17:30;;;;;;;2.30;2.20;;;;;;;21.44;50.94;100182.04;214821;1276;139781;-64
2022/06/02 11:22:56;;;;;;;2.60;2.40;;;;;;;21.59;51.15;100181.23;215620;1276;139881;-63
2022/06/02 11:28:43;;;;;;;2.60;2.40;;;;;;;21.48;50.82;100179.21;215131;1276;140032;-64
2022/06/02 11:34:31;;;;;;;3.30;2.40;;;;;;;21.39;51.00;100183.31;214391;1275;140531;-63
2022/06/02 11:40:03;;;;;;;2.30;2.20;;;;;;;21.56;51.00;100186.94;213893;1276;141596;-64
2022/06/02 11:45:14;;;;;;;2.60;2.40;;;;;;;21.39;50.39;100183.36;213159;1275;140802;-64
2022/06/02 11:50:50;;;;;;;2.40;2.20;;;;;;;21.53;50.11;100185.31;214211;1276;141031;-64
2022/06/02 11:56:27;;;;;;;2.30;1.70;;;;;;;21.71;49.34;100182.40;213386;1276;140840;-63
2022/06/02 12:01:42;;;;;;;3.40;2.10;;;;;;;21.34;49.18;100186.55;214130;1276;152693;-64
2022/06/02 12:07:29;;;;;;;2.20;2.00;;;;;;;21.16;49.06;100177.52;213873;1277;141468;-65
2022/06/02 12:13:07;;;;;;;1.50;1.50;;;;;;;21.34;49.61;100181.50;213872;1274;140371;-64
2022/06/02 12:18:40;;;;;;;1.70;1.60;;;;;;;21.48;48.70;100178.12;214594;1277;140017;-64
2022/06/02 12:24:26;;;;;;;3.80;1.90;;;;;;;21.58;48.12;100180.39;215286;1275;139770;-64
2022/06/02 12:30:00;;;;;;;1.50;1.50;;;;;;;21.61;47.82;100176.34;215186;1276;140182;-64
2022/06/02 12:35:22;;;;;;;2.40;2.00;;;;;;;21.33;47.75;100180.16;215215;1274;141022;-64
2022/06/02 12:40:52;;;;;;;1.60;1.50;;;;;;;21.47;47.84;100185.39;213720;1275;139672;-63
2022/06/02 12:46:08;;;;;;;1.70;1.70;;;;;;;21.66;47.19;100182.88;215862;1274;139917;-64
2022/06/02 12:51:54;;;;;;;1.40;1.30;;;;;;;21.57;46.68;100185.45;215838;1275;140009;-64
2022/06/02 12:57:26;;;;;;;2.20;1.50;;;;;;;21.28;46.67;100190.63;215610;1276;140189;-64
2022/06/02 13:02:31;;;;;;;1.40;1.40;;;;;;;20.90;46.50;100197.60;215920;1275;140223;-63
2022/06/02 13:08:10;;;;;;;2.20;2.00;;;;;;;20.74;46.73;100205.89;215908;1275;140990;-64
2022/06/02 13:13:23;;;;;;;1.90;1.90;;;;;;;20.93;47.14;100206.72;215729;1275;139922;-64
2022/06/02 13:18:40;;;;;;;2.40;2.30;;;;;;;21.23;47.11;100202.23;213310;1275;140048;-65
2022/06/02 13:24:17;;;;;;;1.40;1.40;;;;;;;21.24;46.74;100203.80;214755;1276;140745;-64
2022/06/02 13:30:01;;;;;;;1.50;1.50;;;;;;;21.55;46.19;100204.53;214897;1276;139686;-65
2022/06/02 13:35:18;;;;;;;1.80;1.40;;;;;;;21.54;45.23;100211.92;213808;1277;139945;-64
2022/06/02 13:40:28;;;;;;;1.50;1.30;;;;;;;21.50;45.08;100210.36;214626;1275;140507;-64
2022/06/02 13:45:49;;;;;;;1.20;1.20;;;;;;;21.68;45.08;100209.86;213365;1276;140274;-65
2022/06/02 13:51:14;;;;;;;1.60;1.60;;;;;;;21.93;44.53;100210.86;213492;1276;140085;-65
2022/06/02 14:02:30;;;;;;;1.30;1.20;;;;;;;21.46;43.89;100214.06;213602;1276;140570;-65
2022/06/02 14:07:48;;;;;;;2.70;1.30;;;;;;;21.42;44.12;100215.85;214733;1275;141696;-63
2022/06/02 14:13:18;;;;;;;1.40;1.30;;;;;;;21.48;44.30;100227.55;214181;1276;139381;-65
2022/06/02 14:18:29;;;;;;;1.80;1.70;;;;;;;21.31;44.37;100230.35;214005;1275;139536;-63
2022/06/02 14:23:46;;;;;;;1.40;1.40;;;;;;;21.16;44.79;100236.91;215141;1276;141300;-65
2022/06/02 14:29:18;;;;;;;1.10;1.10;;;;;;;21.13;44.96;100233.62;213882;1275;140375;-64
2022/06/02 14:34:32;;;;;;;1.50;1.40;;;;;;;20.98;44.45;100237.12;214223;1275;142874;-64
2022/06/02 14:39:38;;;;;;;2.10;1.50;;;;;;;20.80;44.57;100247.55;213665;1276;139839;-65
2022/06/02 14:45:01;;;;;;;1.70;1.60;;;;;;;20.79;44.76;100245.42;214560;1274;139860;-65
2022/06/02 14:50:28;;;;;;;0.80;0.80;;;;;;;20.60;44.65;100249.19;215956;1275;141380;-65
2022/06/02 14:55:59;;;;;;;1.40;1.40;;;;;;;20.48;44.72;100246.56;215658;1276;140366;-65
2022/06/02 15:01:15;;;;;;;1.30;1.30;;;;;;;20.32;44.61;100243.94;215949;1275;141795;-65
2022/06/02 15:06:27;;;;;;;0.80;0.80;;;;;;;20.52;44.85;100245.17;215619;1276;141922;-64
2022/06/02 15:11:56;;;;;;;0.80;0.80;;;;;;;20.48;44.40;100244.33;214367;1275;140451;-64
2022/06/02 15:17:25;;;;;;;1.50;1.50;;;;;;;20.35;44.24;100247.70;213432;1276;139954;-64
2022/06/02 15:22:41;;;;;;;0.90;0.90;;;;;;;20.57;44.44;100244.07;214726;1276;141033;-64
2022/06/02 15:28:16;;;;;;;1.10;1.10;;;;;;;20.67;44.48;100247.27;214131;1276;140463;-64
2022/06/02 15:33:55;;;;;;;0.70;0.70;;;;;;;20.38;44.35;100247.67;213528;1274;140525;-65
2022/06/02 15:39:36;;;;;;;2.40;1.20;;;;;;;20.16;44.32;100252.21;214608;1275;139737;-64
2022/06/02 15:45:17;;;;;;;1.20;1.10;;;;;;;20.31;44.48;100251.75;213678;1276;140289;-64
2022/06/02 15:50:44;;;;;;;1.00;1.00;;;;;;;20.44;44.44;100251.21;213375;1276;139471;-64
2022/06/02 15:56:08;;;;;;;1.30;1.20;;;;;;;20.44;44.22;100246.98;214321;1276;139546;-64
2022/06/02 16:01:35;;;;;;;0.90;0.90;;;;;;;20.29;44.55;100253.18;213971;1276;140346;-64
2022/06/02 16:07:00;;;;;;;1.10;1.00;;;;;;;20.07;44.40;100255.45;214339;1276;139468;-64
2022/06/02 16:12:35;;;;;;;1.20;1.10;;;;;;;20.04;44.50;100259.59;214152;1274;140540;-64
2022/06/02 16:17:49;;;;;;;1.30;1.20;;;;;;;20.06;44.58;100258.60;213576;1275;142118;-64
2022/06/02 16:23:16;;;;;;;1.00;1.00;;;;;;;20.06;44.54;100260.98;213658;1276;142660;-66
2022/06/02 16:29:05;;;;;;;1.00;1.00;;;;;;;20.03;44.29;100265.50;213920;1275;141829;-64
2022/06/02 16:34:12;;;;;;;1.40;0.80;;;;;;;19.99;44.25;100266.61;214058;1276;141572;-65
2022/06/02 16:39:34;;;;;;;;;;;;;;;19.99;44.36;100262.45;215298;1275;220374;-64
2022/06/02 16:45:09;;;;;;;1.20;1.20;;;;;;;19.91;44.22;100265.20;215843;1276;126296;-65
2022/06/02 16:50:49;;;;;;;1.20;1.20;;;;;;;19.85;44.50;100269.06;216000;1275;139757;-65
2022/06/02 16:55:56;;;;;;;1.10;1.10;;;;;;;19.78;44.50;100272.31;215441;1274;535423;-65
2022/06/02 17:01:20;;;;;;;;;;;;;;;19.64;44.33;100270.40;215623;1275;141065;-64
2022/06/02 17:06:43;;;;;;;1.00;1.00;;;;;;;19.49;44.41;100269.70;216394;1275;126538;-64
2022/06/02 17:11:53;;;;;;;1.10;1.10;;;;;;;19.36;44.60;100269.48;213925;1275;140524;-64
2022/06/02 17:17:17;;;;;;;1.60;1.50;;;;;;;19.24;44.78;100272.95;214922;1275;139736;-63
2022/06/02 17:22:55;;;;;;;1.50;1.40;;;;;;;19.17;45.06;100277.27;215212;1275;140453;-63
2022/06/02 17:28:18;;;;;;;1.40;1.40;;;;;;;19.04;45.28;100284.07;214307;1275;142663;-65
2022/06/02 17:33:50;;;;;;;1.30;1.30;;;;;;;18.91;45.31;100288.89;215189;1274;140418;-63
2022/06/02 17:39:35;;;;;;;2.00;1.50;;;;;;;18.78;45.53;100288.17;214539;1275;140716;-65
2022/06/02 17:45:01;;;;;;;1.30;1.30;;;;;;;18.64;46.38;100290.38;214138;1276;140281;-63
2022/06/02 17:50:10;;;;;;;1.30;1.30;;;;;;;18.50;46.89;100290.92;213809;1275;139968;-64
2022/06/02 17:55:42;;;;;;;1.70;1.40;;;;;;;18.35;47.48;100293.81;213961;1276;235063;-64
2022/06/02 18:00:53;;;;;;;1.60;1.50;;;;;;;18.14;48.05;100294.96;214074;1274;140647;-64
2022/06/02 18:06:35;;;;;;;1.70;1.60;;;;;;;17.95;48.91;100296.71;213181;1276;139936;-64
2022/06/02 18:12:01;;;;;;;1.70;1.60;;;;;;;17.68;49.74;100294.67;214488;1276;140210;-65
2022/06/02 18:17:26;;;;;;;1.20;1.20;;;;;;;17.42;50.40;100300.92;214085;1275;140375;-64
2022/06/02 18:23:15;;;;;;;2.70;1.80;;;;;;;17.17;51.39;100302.46;214599;1276;141449;-64
2022/06/02 18:28:43;;;;;;;1.90;1.50;;;;;;;16.89;52.40;100315.81;213087;1275;140366;-65
2022/06/02 18:34:34;;;;;;;1.70;1.60;;;;;;;16.57;53.05;100319.18;213445;1274;141232;-63
2022/06/02 18:40:05;;;;;;;2.20;2.00;;;;;;;16.27;53.77;100330.48;214525;1275;140654;-65
2022/06/02 18:45:20;;;;;;;1.80;1.70;;;;;;;16.01;54.46;100334.13;215927;1275;139847;-65
2022/06/02 18:51:00;;;;;;;5.30;2.20;;;;;;;15.75;55.00;100340.19;215935;1274;139912;-65
2022/06/02 18:56:42;;;;;;;2.80;2.10;;;;;;;15.49;55.68;100348.11;215452;1274;140188;-65
2022/06/02 19:02:08;;;;;;;2.10;1.90;;;;;;;15.18;56.13;100358.21;215878;1275;140612;-65
2022/06/02 19:18:47;;;;;;;2.50;2.00;;;;;;;14.32;58.27;100373.54;214483;1275;140140;-65
2022/06/02 19:24:13;;;;;;;1.80;1.70;;;;;;;13.99;58.63;100378.18;215214;1275;149872;-65
2022/06/02 19:29:29;;;;;;;1.70;1.60;;;;;;;13.70;59.15;100384.23;214082;1276;139879;-64
2022/06/02 19:34:47;;;;;;;1.60;1.50;;;;;;;13.49;60.09;100383.57;215086;1275;140496;-65
2022/06/02 19:40:31;;;;;;;2.10;2.00;;;;;;;13.35;60.17;100384.20;213522;1275;139985;-64
2022/06/02 19:45:43;;;;;;;2.90;2.70;;;;;;;13.14;60.94;100387.23;213906;1275;139853;-65
2022/06/02 19:50:51;;;;;;;3.40;3.10;;;;;;;13.04;61.22;100388.51;214731;1276;139960;-64
2022/06/02 19:56:09;;;;;;;3.20;2.90;;;;;;;12.81;61.58;100390.02;213815;1276;140641;-62
2022/06/02 20:01:15;;;;;;;9.10;3.50;;;;;;;12.73;62.00;100394.30;213740;1276;141336;-64
2022/06/02 20:06:34;;;;;;;3.90;3.00;;;;;;;12.74;62.26;100398.91;213416;1275;153570;-63
2022/06/02 20:11:44;;;;;;;3.00;2.80;;;;;;;12.75;62.37;100404.61;213980;1276;142531;-63
2022/06/02 20:17:00;;;;;;;5.70;4.20;;;;;;;12.60;62.41;100411.41;212883;1274;140334;-64
2022/06/02 20:22:34;;;;;;;3.20;3.00;;;;;;;12.25;62.58;100412.48;213653;1275;140537;-64
2022/06/02 20:27:52;;;;;;;4.20;3.80;;;;;;;12.06;63.46;100421.36;214324;1276;140417;-63
2022/06/02 20:33:25;;;;;;;6.40;4.50;;;;;;;11.94;63.90;100421.50;214308;1276;141905;-62
2022/06/02 20:38:44;;;;;;;5.40;4.80;;;;;;;11.83;64.48;100420.80;215540;1276;141067;-64
2022/06/02 20:43:51;;;;;;;4.20;3.90;;;;;;;11.75;64.44;100423.63;215052;1276;139541;-62
2022/06/02 20:49:22;;;;;;;4.80;4.40;;;;;;;11.67;64.81;100432.14;215236;1275;140407;-64
2022/06/02 20:54:39;;;;;;;6.00;4.90;;;;;;;11.52;65.07;100438.38;215057;1276;141997;-63
2022/06/02 20:59:53;;;;;;;5.90;4.30;;;;;;;11.48;65.34;100448.80;216002;1275;142254;-64
2022/06/02 21:05:14;;;;;;;5.60;4.90;;;;;;;11.29;65.36;100448.65;215957;1276;140804;-64
2022/06/02 21:10:31;;;;;;;4.40;4.10;;;;;;;11.20;65.86;100459.34;215751;1276;140075;-64
2022/06/02 21:16:14;;;;;;;4.90;4.50;;;;;;;11.28;66.15;100461.29;215984;1276;141605;-65
2022/06/02 21:21:49;;;;;;;6.10;4.00;;;;;;;11.28;66.09;100464.44;215610;1275;142999;-64
2022/06/02 21:26:57;;;;;;;4.80;4.30;;;;;;;11.12;66.01;100467.25;214113;1276;141324;-64
2022/06/02 21:32:22;;;;;;;5.50;5.10;;;;;;;10.98;66.56;100468.42;215038;1276;140838;-64
2022/06/02 21:37:50;;;;;;;5.00;4.40;;;;;;;10.97;66.63;100473.11;214786;1275;141519;-63
2022/06/02 21:43:03;;;;;;;7.20;5.40;;;;;;;10.93;66.79;100470.04;213389;1275;141875;-64
2022/06/02 21:48:34;;;;;;;11.90;6.00;;;;;;;10.72;66.59;100466.88;214058;1275;141159;-63
2022/06/02 21:53:55;;;;;;;7.10;6.20;;;;;;;10.44;66.84;100468.56;213764;1275;141708;-63
2022/06/02 21:59:21;;;;;;;6.80;6.20;;;;;;;10.29;67.67;100469.50;214308;1275;141746;-63
2022/06/02 22:04:28;;;;;;;12.50;7.90;;;;;;;10.36;68.09;100473.19;214038;1276;140944;-64
2022/06/02 22:09:41;;;;;;;8.60;6.30;;;;;;;10.29;67.74;100472.20;213006;1276;162186;-66
2022/06/02 22:14:55;;;;;;;6.00;5.50;;;;;;;10.11;67.98;100472.89;214811;1275;140665;-63
2022/06/02 22:20:32;;;;;;;5.10;4.70;;;;;;;9.92;68.08;100471.71;213132;1276;139813;-63
2022/06/02 22:25:55;;;;;;;6.90;6.20;;;;;;;9.68;68.31;100476.70;213817;1275;141572;-65
2022/06/02 22:31:05;;;;;;;11.30;8.30;;;;;;;9.58;69.04;100476.80;213442;1277;139168;-61
2022/06/02 22:36:19;;;;;;;7.70;7.00;;;;;;;9.61;69.54;100476.31;214130;1275;141083;-63
2022/06/02 22:41:34;;;;;;;6.50;5.90;;;;;;;9.67;69.72;100471.66;214724;1275;140779;-63
2022/06/02 22:47:09;;;;;;;10.00;8.30;;;;;;;9.72;69.64;100475.71;214710;1276;212403;-63
2022/06/02 22:52:31;;;;;;;12.00;8.10;;;;;;;9.74;69.75;100473.45;215913;1276;141887;-65
2022/06/02 22:57:53;;;;;;;7.50;5.90;;;;;;;9.54;69.49;100481.98;215587;1276;139872;-63
2022/06/02 23:03:16;;;;;;;8.80;7.90;;;;;;;9.38;69.44;100488.34;215950;1276;140808;-64
2022/06/02 23:08:34;;;;;;;7.70;7.00;;;;;;;9.27;69.84;100484.63;214324;1276;141429;-63
2022/06/02 23:14:00;;;;;;;11.10;7.80;;;;;;;9.20;69.99;100488.31;216162;1275;142125;-63
2022/06/02 23:19:24;;;;;;;9.80;7.60;;;;;;;9.18;70.23;100494.30;216060;1276;141330;-63
2022/06/02 23:25:15;;;;;;;10.20;7.00;;;;;;;9.16;70.43;100493.99;214085;1277;140889;-64
2022/06/02 23:30:48;;;;;;;8.50;7.90;;;;;;;9.11;70.81;100499.48;215188;1276;141017;-64
2022/06/02 23:36:10;;;;;;;8.90;6.60;;;;;;;9.12;70.90;100495.64;215249;1276;139843;-64
2022/06/02 23:47:25;;;;;;;9.20;8.30;;;;;;;9.00;70.66;100499.27;214491;1276;224853;-64
2022/06/02 23:52:53;;;;;;;10.00;6.70;;;;;;;8.85;70.77;100504.02;214259;1276;139303;-64
2022/06/02 23:58:22;;;;;;;5.90;5.40;;;;;;;8.70;71.15;100505.70;213529;1277;140862;-63
